Time;durP1;ratioP1;P1;durP2;ratioP2;P2;SDS_P1;SDS_P2;PMS_P1;PMS_P2;Temp;Humidity;BMP_temperature;BMP_pressure;BME280_temperature;BME280_humidity;BME280_pressure;Samples;Min_cycle;Max_cycle;Signal;HPM_P1;HPM_P2
2022/12/16 00:02:14;;;;;;;40.50;24.13;;;;;;;;;;5095018;28;20036;-71
2022/12/16 00:04:40;;;;;;;14.82;11.13;;;;;;;;;;5095028;28;20036;-71
2022/12/16 00:07:06;;;;;;;4.35;2.92;;;;;;;;;;5094569;28;20379;-71
2022/12/16 00:09:33;;;;;;;3.88;2.60;;;;;;;;;;5095047;28;20043;-71
2022/12/16 00:11:59;;;;;;;4.93;3.40;;;;;;;;;;5095309;28;20479;-71
2022/12/16 00:14:26;;;;;;;4.13;3.33;;;;;;;;;;5094926;28;20035;-71
2022/12/16 00:16:52;;;;;;;3.42;3.13;;;;;;;;;;5094905;28;20066;-71
2022/12/16 00:19:18;;;;;;;4.72;3.53;;;;;;;;;;5094928;28;20042;-71
2022/12/16 00:21:44;;;;;;;4.32;3.30;;;;;;;;;;5094852;28;20439;-71
2022/12/16 00:24:10;;;;;;;3.97;2.95;;;;;;;;;;5095141;28;20036;-71
2022/12/16 00:26:36;;;;;;;7.15;3.50;;;;;;;;;;5094529;28;20047;-71
2022/12/16 00:29:04;;;;;;;7.80;5.28;;;;;;;;;;5094504;28;20040;-71
2022/12/16 00:31:30;;;;;;;11.40;8.00;;;;;;;;;;5094556;28;20040;-71
2022/12/16 00:33:57;;;;;;;24.13;14.48;;;;;;;;;;5094478;28;20032;-71
2022/12/16 00:36:23;;;;;;;15.27;10.63;;;;;;;;;;5094760;28;20059;-71
2022/12/16 00:38:51;;;;;;;5.57;3.30;;;;;;;;;;5094272;28;20040;-71
2022/12/16 00:41:17;;;;;;;9.43;5.68;;;;;;;;;;5094344;28;20024;-71
2022/12/16 00:43:43;;;;;;;5.45;4.00;;;;;;;;;;5095284;28;20134;-71
2022/12/16 00:46:09;;;;;;;12.40;8.63;;;;;;;;;;5094301;28;20490;-71
2022/12/16 00:48:36;;;;;;;11.18;5.80;;;;;;;;;;5094909;28;20111;-71
2022/12/16 00:51:02;;;;;;;5.53;3.80;;;;;;;;;;5094667;28;20066;-71
2022/12/16 00:53:28;;;;;;;5.13;3.63;;;;;;;;;;5094619;28;20554;-71
2022/12/16 00:56:08;;;;;;;3.50;2.50;;;;;;;;;;5094557;28;20038;-71
2022/12/16 00:58:34;;;;;;;2.22;1.85;;;;;;;;;;5094996;28;20036;-71
2022/12/16 01:01:01;;;;;;;6.30;2.92;;;;;;;;;;5098693;28;20032;-71
2022/12/16 01:03:27;;;;;;;5.50;4.00;;;;;;;;;;5099257;28;20044;-71
2022/12/16 01:05:53;;;;;;;6.47;5.20;;;;;;;;;;5098270;28;20032;-71
2022/12/16 01:08:19;;;;;;;5.03;2.50;;;;;;;;;;5098289;28;20044;-71
2022/12/16 01:10:52;;;;;;;4.68;2.70;;;;;;;;;;5098259;28;20086;-71
2022/12/16 01:13:18;;;;;;;2.97;2.58;;;;;;;;;;5098510;28;20085;-71
2022/12/16 01:15:44;;;;;;;5.93;2.28;;;;;;;;;;5098067;28;20039;-71
2022/12/16 01:18:10;;;;;;;6.43;4.35;;;;;;;;;;5098311;28;20044;-71
2022/12/16 01:20:37;;;;;;;9.60;4.80;;;;;;;;;;5098029;28;20032;-71
2022/12/16 01:23:03;;;;;;;11.95;7.68;;;;;;;;;;5097781;28;20036;-71
2022/12/16 01:25:30;;;;;;;7.30;5.13;;;;;;;;;;5098379;28;20044;-71
2022/12/16 01:27:56;;;;;;;4.78;2.72;;;;;;;;;;5098282;28;20036;-71
2022/12/16 01:30:22;;;;;;;2.85;2.10;;;;;;;;;;5098403;28;20043;-71
2022/12/16 01:32:49;;;;;;;6.20;2.92;;;;;;;;;;5098674;28;20107;-71
2022/12/16 01:35:15;;;;;;;4.03;2.17;;;;;;;;;;5098432;28;20039;-71
2022/12/16 01:37:41;;;;;;;4.30;2.58;;;;;;;;;;5097817;28;20032;-71
2022/12/16 01:40:08;;;;;;;3.75;2.63;;;;;;;;;;5098453;28;20040;-71
2022/12/16 01:42:34;;;;;;;3.30;2.25;;;;;;;;;;5098413;28;20035;-71
2022/12/16 01:45:19;;;;;;;3.33;2.22;;;;;;;;;;5098415;28;20066;-71
2022/12/16 01:47:45;;;;;;;5.68;3.75;;;;;;;;;;5097731;28;20100;-71
2022/12/16 01:50:14;;;;;;;4.72;3.75;;;;;;;;;;5098050;28;20036;-71
2022/12/16 01:52:43;;;;;;;6.43;4.32;;;;;;;;;;5098152;28;20040;-71
2022/12/16 01:55:15;;;;;;;7.85;3.20;;;;;;;;;;5097620;28;20378;-71
2022/12/16 01:57:44;;;;;;;6.30;2.70;;;;;;;;;;5097950;28;20115;-71
2022/12/16 02:00:11;;;;;;;6.60;3.97;;;;;;;;;;5097562;28;20105;-71
2022/12/16 02:02:38;;;;;;;3.20;2.65;;;;;;;;;;5098317;28;20105;-71
2022/12/16 02:05:19;;;;;;;3.83;2.17;;;;;;;;;;5097768;28;20040;-71
2022/12/16 02:07:59;;;;;;;6.60;2.50;;;;;;;;;;5097302;28;20051;-71
2022/12/16 02:10:35;;;;;;;4.00;2.33;;;;;;;;;;5097083;28;20040;-71
2022/12/16 02:13:06;;;;;;;3.85;2.30;;;;;;;;;;5097729;28;20035;-71
2022/12/16 02:15:35;;;;;;;2.92;2.40;;;;;;;;;;5097425;28;20036;-71
2022/12/16 02:18:18;;;;;;;9.23;2.00;;;;;;;;;;5097476;28;20050;-71
2022/12/16 02:20:56;;;;;;;4.22;2.38;;;;;;;;;;5097225;28;20085;-71
2022/12/16 02:23:35;;;;;;;5.35;2.55;;;;;;;;;;5097298;28;20111;-71
2022/12/16 02:26:20;;;;;;;3.33;2.60;;;;;;;;;;5097501;28;20044;-71
2022/12/16 02:28:59;;;;;;;4.25;2.95;;;;;;;;;;5097026;28;20044;-71
2022/12/16 02:31:33;;;;;;;4.63;3.30;;;;;;;;;;5095722;28;20071;-71
2022/12/16 02:34:09;;;;;;;3.30;2.97;;;;;;;;;;5096898;28;20027;-71
2022/12/16 02:36:54;;;;;;;5.90;4.38;;;;;;;;;;5097136;28;20085;-71
2022/12/16 02:39:22;;;;;;;12.00;4.97;;;;;;;;;;5096841;28;20032;-71
2022/12/16 02:42:00;;;;;;;7.28;4.18;;;;;;;;;;5097124;28;20036;-71
2022/12/16 02:44:39;;;;;;;3.83;3.25;;;;;;;;;;5097200;28;20047;-71
2022/12/16 02:47:05;;;;;;;4.68;2.75;;;;;;;;;;5097507;28;20044;-71
2022/12/16 02:49:31;;;;;;;4.35;3.08;;;;;;;;;;5096622;28;20036;-71
2022/12/16 02:51:59;;;;;;;3.97;3.10;;;;;;;;;;5096948;28;20047;-71
2022/12/16 02:54:25;;;;;;;7.35;4.32;;;;;;;;;;5097090;28;20043;-71
2022/12/16 02:57:10;;;;;;;7.72;3.50;;;;;;;;;;5096762;28;20054;-71
2022/12/16 02:59:42;;;;;;;4.68;3.20;;;;;;;;;;5096418;28;20608;-71
2022/12/16 03:02:15;;;;;;;3.35;3.05;;;;;;;;;;5096692;28;20040;-71
2022/12/16 03:04:45;;;;;;;6.32;3.47;;;;;;;;;;5096077;28;20373;-71
2022/12/16 03:07:13;;;;;;;4.00;3.20;;;;;;;;;;5096361;28;20035;-71
2022/12/16 03:09:40;;;;;;;4.10;3.20;;;;;;;;;;5096210;28;20043;-71
2022/12/16 03:12:09;;;;;;;4.57;2.40;;;;;;;;;;5096555;28;20046;-71
2022/12/16 03:14:37;;;;;;;4.60;2.58;;;;;;;;;;5096407;28;20040;-71
2022/12/16 03:17:04;;;;;;;5.28;2.92;;;;;;;;;;5096082;28;20036;-71
2022/12/16 03:19:31;;;;;;;2.70;2.33;;;;;;;;;;5096007;28;20115;-71
2022/12/16 03:22:07;;;;;;;3.60;2.38;;;;;;;;;;5096392;28;20051;-71
2022/12/16 03:24:34;;;;;;;3.88;2.70;;;;;;;;;;5096432;28;20040;-71
2022/12/16 03:27:06;;;;;;;5.07;2.25;;;;;;;;;;5095857;28;20146;-71
2022/12/16 03:29:35;;;;;;;4.57;2.67;;;;;;;;;;5096360;28;20071;-71
2022/12/16 03:32:05;;;;;;;4.90;3.20;;;;;;;;;;5096202;28;20040;-71
2022/12/16 03:34:49;;;;;;;4.07;2.60;;;;;;;;;;5088233;28;20040;-71
2022/12/16 03:37:16;;;;;;;8.43;3.28;;;;;;;;;;5073651;28;20036;-71
2022/12/16 03:39:45;;;;;;;4.82;3.30;;;;;;;;;;5074425;28;20120;-71
2022/12/16 03:42:13;;;;;;;3.38;3.05;;;;;;;;;;5075615;28;20119;-71
2022/12/16 03:44:40;;;;;;;5.55;3.53;;;;;;;;;;5074870;28;20114;-71
2022/12/16 03:47:06;;;;;;;3.30;2.60;;;;;;;;;;5074921;28;20097;-71
2022/12/16 03:49:32;;;;;;;4.80;2.70;;;;;;;;;;5075291;28;20112;-71
2022/12/16 03:51:58;;;;;;;2.97;2.30;;;;;;;;;;5075254;28;20495;-71
2022/12/16 03:54:24;;;;;;;4.60;1.92;;;;;;;;;;5075377;28;20039;-71
2022/12/16 03:56:50;;;;;;;3.72;2.00;;;;;;;;;;5075620;28;20159;-71
2022/12/16 03:59:17;;;;;;;3.28;2.60;;;;;;;;;;5075011;28;20036;-71
2022/12/16 04:01:43;;;;;;;3.70;2.63;;;;;;;;;;5075892;28;20444;-71
2022/12/16 04:04:09;;;;;;;4.38;2.35;;;;;;;;;;5074915;28;20035;-71
2022/12/16 04:06:35;;;;;;;3.97;2.40;;;;;;;;;;5075722;28;20051;-71
2022/12/16 04:09:01;;;;;;;3.97;2.38;;;;;;;;;;5075204;28;20448;-71
2022/12/16 04:25:20;;;;;;;5.32;3.30;;;;;;;;;;5094655;28;20142;-71
2022/12/16 04:27:46;;;;;;;8.52;4.38;;;;;;;;;;5094143;28;20147;-71
2022/12/16 04:30:20;;;;;;;3.55;2.70;;;;;;;;;;5094572;28;20047;-71
